EHKD

Details ICAO EHKD (DHR)
Name De Kooy
Region Netherlands
Timezone Europe/Amsterdam (UTC+2.0)
Plans Departing 55
Arriving 57
Stats Elevation 3 ft / 1 m (AMSL)
Location 52.923485° 4.780629°
Runways 1
Magnetic Variation 1.166° E
Sunrise 2018-05-22 03:34:27 UTC / 2018-05-22 05:34:27 Local
Sunset 2018-05-22 19:43:30 UTC / 2018-05-22 21:43:30 Local
Advertisement - Login to hide

Runways

ID Width Length Bearing (true) Bearing (mag) Surface Threshold Offset Overrun Length
04 98 ft / 30 m 4,178 ft / 1,273 m 33.85° 32.68° Concrete 804 ft / 245 m 0 ft / 0 m
22 98 ft / 30 m 4,178 ft / 1,273 m 213.86° 212.69° Concrete 804 ft / 245 m 0 ft / 0 m

Approach Navaids

Runway Type Ident Frequency Range Bearing (true) Bearing (mag) Slope Elevation
22 Localiser DK 109.70 MHz 18 nm / 33 km 213.84° 212.68° - 3 ft / 1 m (AMSL)
22 Glidescope DK 109.70 MHz 15 nm / 28 km 213.84° 212.68° 3.00° 3 ft / 1 m (AMSL)

Map

Weather


0- 5 10 15 20 25 30 35+ Temperature / ° C

Clouds and Precipitation
Forecast for 2018-05-22 00:00 UTC. Updated 6 hours ago

Ground ~20,000 ft ~40,000 ft Winds

METAR

EHKD 220455Z AUTO 08007KT 9999 NCD 15/11 Q1013 BLU 07008KT CAVOK

TAF

TAF TAF EHKD 220000Z 2201/2213 04004KT CAVOK

Frequencies

Ground 121.72 MHz GND
Tower 120.12 MHz TWR
Approach 119.10 MHz APP
Tower 122.10 MHz TWR
Approach 122.10 MHz APP
Warning: Do not use this data for real-world aviation or navigation. No guarantee of current accuracy is given.